Time;durP1;ratioP1;P1;durP2;ratioP2;P2;SDS_P1;SDS_P2;PMS_P1;PMS_P2;Temp;Humidity;BMP_temperature;BMP_pressure;BME280_temperature;BME280_humidity;BME280_pressure;Samples;Min_cycle;Max_cycle;Signal;HPM_P1;HPM_P2
2023/10/02 00:00:42;;;;;;;9.88;5.65;;;17.70;99.90;;;;;;4980237;28;20037;-93
2023/10/02 00:03:11;;;;;;;10.18;5.65;;;17.70;99.90;;;;;;4982636;28;20041;-93
2023/10/02 00:05:40;;;;;;;14.02;5.63;;;17.70;99.90;;;;;;5005191;28;20500;-93
2023/10/02 00:08:07;;;;;;;10.52;5.72;;;17.70;99.90;;;;;;4988050;28;20304;-93
2023/10/02 00:10:33;;;;;;;11.52;6.18;;;17.70;99.90;;;;;;4997206;28;20055;-94
2023/10/02 00:12:59;;;;;;;12.20;5.95;;;17.70;99.90;;;;;;4966341;28;20400;-93
2023/10/02 00:15:26;;;;;;;11.07;6.00;;;17.60;99.90;;;;;;4959480;28;20053;-93
2023/10/02 00:17:51;;;;;;;10.67;6.03;;;17.60;99.90;;;;;;4979230;28;20754;-93
2023/10/02 00:20:23;;;;;;;11.30;6.10;;;17.70;99.90;;;;;;4984052;28;20046;-94
2023/10/02 00:22:53;;;;;;;12.85;6.60;;;17.60;99.90;;;;;;4981650;28;20459;-93
2023/10/02 00:25:22;;;;;;;12.55;6.32;;;17.60;99.90;;;;;;4982613;28;20485;-93
2023/10/02 00:27:51;;;;;;;11.52;6.00;;;17.60;99.90;;;;;;4996803;28;20044;-94
2023/10/02 00:30:20;;;;;;;9.77;5.95;;;17.60;99.90;;;;;;5004777;28;20041;-93
2023/10/02 00:32:48;;;;;;;12.43;6.85;;;17.60;99.90;;;;;;4992412;28;20048;-93
2023/10/02 00:35:14;;;;;;;;;;;17.60;99.90;;;;;;4990540;28;20044;-93
2023/10/02 00:37:44;;;;;;;13.48;5.72;;;17.50;99.90;;;;;;4980353;28;20366;-94
2023/10/02 00:40:20;;;;;;;11.88;6.35;;;17.50;99.90;;;;;;4980065;28;20053;-95
2023/10/02 00:42:55;;;;;;;12.93;5.90;;;17.50;99.90;;;;;;4989394;28;20500;-93
2023/10/02 00:45:30;;;;;;;11.15;6.55;;;17.50;99.90;;;;;;4984647;28;20125;-93
2023/10/02 00:48:45;;;;;;;12.07;6.53;;;17.50;99.90;;;;;;4978175;28;20100;-94
2023/10/02 00:50:54;;;;;;;10.65;6.13;;;18.20;99.90;;;;;;4974610;28;20072;-93
2023/10/02 00:53:38;;;;;;;10.68;6.72;;;17.50;99.90;;;;;;4998754;28;20233;-93
2023/10/02 00:56:19;;;;;;;12.02;6.68;;;17.40;99.90;;;;;;4978292;28;20103;-93
2023/10/02 00:59:00;;;;;;;12.20;7.13;;;17.40;99.90;;;;;;4998144;28;20432;-93
2023/10/02 01:01:34;;;;;;;12.38;6.90;;;17.40;99.90;;;;;;4999889;28;20045;-93
2023/10/02 01:04:23;;;;;;;16.77;6.63;;;17.40;99.90;;;;;;4970174;28;20103;-93
2023/10/02 01:09:33;;;;;;;12.05;6.28;;;17.40;99.90;;;;;;5013609;28;20045;-93
2023/10/02 01:11:59;;;;;;;15.10;6.80;;;17.40;99.90;;;;;;4983264;28;20042;-94
2023/10/02 01:17:16;;;;;;;12.77;7.15;;;17.40;99.90;;;;;;5014123;28;20064;-94
2023/10/02 01:19:54;;;;;;;10.82;6.18;;;17.30;99.90;;;;;;4998208;28;20387;-93
2023/10/02 01:22:43;;;;;;;11.25;6.60;;;17.30;99.90;;;;;;5001407;28;20040;-93
2023/10/02 01:25:13;;;;;;;13.23;7.10;;;17.20;99.90;;;;;;4983282;28;20042;-93
2023/10/02 01:27:50;;;;;;;11.90;6.97;;;17.20;99.90;;;;;;4982464;28;20249;-93
2023/10/02 01:30:18;;;;;;;13.25;7.85;;;18.30;99.90;;;;;;4981751;28;20052;-93
2023/10/02 01:33:17;;;;;;;12.63;7.28;;;17.10;99.90;;;;;;4999663;28;20049;-93
2023/10/02 01:35:48;;;;;;;12.20;7.20;;;17.10;99.90;;;;;;4997668;28;20075;-93
2023/10/02 01:38:21;;;;;;;12.60;7.97;;;17.10;99.90;;;;;;5002242;28;20051;-94
2023/10/02 01:41:03;;;;;;;11.93;6.60;;;17.10;99.90;;;;;;5008083;28;20191;-93
2023/10/02 01:43:36;;;;;;;11.65;7.25;;;17.10;99.90;;;;;;4998877;28;20103;-94
2023/10/02 01:46:06;;;;;;;14.82;7.43;;;17.10;99.90;;;;;;4999129;28;20501;-93
2023/10/02 01:48:36;;;;;;;11.02;7.28;;;17.00;99.90;;;;;;4986006;28;20045;-93
2023/10/02 01:51:20;;;;;;;11.32;6.80;;;17.00;99.90;;;;;;4987651;28;20354;-94
2023/10/02 01:53:56;;;;;;;13.35;7.40;;;17.00;99.90;;;;;;4998980;28;20041;-93
2023/10/02 01:56:25;;;;;;;12.33;7.03;;;17.00;99.90;;;;;;5000075;28;20049;-94
2023/10/02 01:58:53;;;;;;;14.15;7.72;;;17.00;99.90;;;;;;4997708;28;20033;-93
2023/10/02 02:01:22;;;;;;;12.60;7.40;;;17.00;99.90;;;;;;4981441;28;20041;-93
2023/10/02 02:03:51;;;;;;;15.40;8.00;;;17.00;99.90;;;;;;4997058;28;20071;-93
2023/10/02 02:06:23;;;;;;;14.43;7.93;;;16.90;99.90;;;;;;4997238;28;20045;-93
2023/10/02 02:09:01;;;;;;;14.27;7.65;;;16.90;99.90;;;;;;4999081;28;20056;-93
2023/10/02 02:11:30;;;;;;;15.77;9.00;;;16.90;99.90;;;;;;4984776;28;20086;-93
2023/10/02 02:14:02;;;;;;;13.55;7.18;;;16.90;99.90;;;;;;4997578;28;20090;-93
2023/10/02 02:16:36;;;;;;;12.05;7.85;;;16.90;99.90;;;;;;4997341;28;20152;-94
2023/10/02 02:19:07;;;;;;;13.38;7.38;;;16.90;99.90;;;;;;4982249;28;20408;-93
2023/10/02 02:21:35;;;;;;;13.13;7.95;;;16.90;99.90;;;;;;4998268;28;20112;-93
2023/10/02 02:24:03;;;;;;;13.20;7.47;;;16.90;99.90;;;;;;4999916;28;20408;-93
2023/10/02 02:26:31;;;;;;;12.52;7.63;;;16.90;99.90;;;;;;4981366;28;20044;-94
2023/10/02 02:28:57;;;;;;;12.77;7.85;;;16.80;99.90;;;;;;4991474;28;20109;-93
2023/10/02 02:31:29;;;;;;;12.80;7.38;;;16.80;99.90;;;;;;4987303;28;20072;-93
2023/10/02 02:34:01;;;;;;;14.48;8.25;;;16.90;99.90;;;;;;5005054;28;20067;-93
2023/10/02 02:36:28;;;;;;;14.00;7.90;;;16.80;99.90;;;;;;4990599;28;20441;-92
2023/10/02 02:39:16;;;;;;;;;;;16.80;99.90;;;;;;4998067;28;20076;-93
2023/10/02 02:41:49;;;;;;;16.55;8.73;;;16.80;99.90;;;;;;5006051;28;19929;-94
2023/10/02 02:47:07;;;;;;;15.13;8.65;;;16.70;99.90;;;;;;4996019;28;20554;-93
2023/10/02 02:49:48;;;;;;;15.45;8.50;;;16.70;99.90;;;;;;4958079;28;20049;-92
2023/10/02 02:52:24;;;;;;;14.07;9.25;;;16.60;99.90;;;;;;4997467;28;20100;-93
2023/10/02 02:55:05;;;;;;;16.13;8.63;;;16.60;99.90;;;;;;4978115;28;20136;-93
2023/10/02 02:57:33;;;;;;;15.13;8.88;;;16.60;99.90;;;;;;4997473;28;20040;-93
2023/10/02 03:02:53;;;;;;;15.45;8.77;;;16.50;99.90;;;;;;5002547;28;20489;-93
2023/10/02 03:05:23;;;;;;;;;;;16.40;99.90;;;;;;4987660;28;20057;-93
2023/10/02 03:07:54;;;;;;;15.15;8.43;;;16.40;99.90;;;;;;4996119;28;19930;-94
2023/10/02 03:10:20;;;;;;;16.63;8.57;;;16.40;99.90;;;;;;4977157;28;20073;-93
2023/10/02 03:12:47;;;;;;;13.70;9.13;;;16.30;99.90;;;;;;4978583;28;20053;-94
2023/10/02 03:15:14;;;;;;;;;;;16.30;99.90;;;;;;5004714;28;20049;-93
2023/10/02 03:17:41;;;;;;;17.10;8.15;;;16.30;99.90;;;;;;4992570;28;20004;-93
2023/10/02 03:20:22;;;;;;;;;;;16.30;99.90;;;;;;4987113;28;20116;-93
2023/10/02 03:22:52;;;;;;;15.77;8.48;;;15.70;99.90;;;;;;4994476;28;19921;-93
2023/10/02 03:25:28;;;;;;;15.35;8.93;;;16.30;99.90;;;;;;4961598;28;20065;-93
2023/10/02 03:27:55;;;;;;;14.68;9.00;;;16.30;99.90;;;;;;4982895;28;20568;-94
2023/10/02 03:30:38;;;;;;;14.77;8.85;;;16.30;99.90;;;;;;4964809;28;20068;-93
2023/10/02 03:33:53;;;;;;;16.30;9.30;;;16.30;99.90;;;;;;4987831;28;20555;-92
2023/10/02 03:36:10;;;;;;;14.13;8.80;;;16.30;99.90;;;;;;4981260;28;20037;-93
2023/10/02 03:38:43;;;;;;;14.50;9.27;;;16.30;99.90;;;;;;4993228;28;20041;-93
2023/10/02 03:41:11;;;;;;;15.52;8.93;;;16.30;99.90;;;;;;4974617;28;20049;-94
2023/10/02 03:43:49;;;;;;;19.33;9.68;;;16.30;99.90;;;;;;4977484;28;20046;-93
2023/10/02 03:46:22;;;;;;;15.65;9.13;;;16.10;99.90;;;;;;4964841;28;20037;-93
2023/10/02 03:48:58;;;;;;;19.05;8.85;;;16.20;99.90;;;;;;4996001;28;20029;-93
2023/10/02 03:51:42;;;;;;;16.85;9.15;;;16.20;99.90;;;;;;4987050;28;20046;-93
2023/10/02 03:54:17;;;;;;;15.15;8.85;;;16.20;99.90;;;;;;4995363;28;20128;-92
2023/10/02 03:56:47;;;;;;;15.07;10.15;;;16.20;99.90;;;;;;4995986;28;20045;-92
2023/10/02 03:59:17;;;;;;;16.98;10.20;;;16.20;99.90;;;;;;4979281;28;20128;-93
2023/10/02 04:01:43;;;;;;;16.42;9.32;;;16.10;99.90;;;;;;4992059;28;20068;-92
2023/10/02 04:06:37;;;;;;;15.15;9.10;;;16.10;99.90;;;;;;4985975;28;20058;-92
2023/10/02 04:09:21;;;;;;;15.30;9.13;;;16.10;99.90;;;;;;4995989;28;20045;-94
2023/10/02 04:11:51;;;;;;;17.58;9.57;;;16.10;99.90;;;;;;4981958;28;20048;-93
2023/10/02 04:14:18;;;;;;;18.42;9.40;;;16.10;99.90;;;;;;4996008;28;20492;-93
2023/10/02 04:16:59;;;;;;;15.93;10.07;;;16.10;99.90;;;;;;4979620;28;20033;-94
2023/10/02 04:19:26;;;;;;;15.50;8.98;;;16.10;99.90;;;;;;4979666;28;20046;-93
2023/10/02 04:21:53;;;;;;;14.77;9.30;;;16.10;99.90;;;;;;4980020;28;20107;-93
2023/10/02 04:24:28;;;;;;;16.10;10.50;;;16.10;99.90;;;;;;4978458;28;20037;-93
2023/10/02 04:26:54;;;;;;;13.95;8.95;;;16.10;99.90;;;;;;4980970;28;20049;-92
2023/10/02 04:32:12;;;;;;;15.35;9.02;;;16.00;99.90;;;;;;4996363;28;20049;-93
2023/10/02 04:34:37;;;;;;;18.58;9.65;;;16.10;99.90;;;;;;4995760;28;20045;-93
2023/10/02 04:37:19;;;;;;;;;;;16.10;99.90;;;;;;4962199;28;20075;-92
2023/10/02 04:42:57;;;;;;;16.35;8.95;;;16.00;99.90;;;;;;4992293;28;20046;-94
2023/10/02 04:45:25;;;;;;;15.45;8.98;;;16.10;99.90;;;;;;4997648;28;20042;-93
2023/10/02 04:47:55;;;;;;;12.15;8.40;;;16.00;99.90;;;;;;4965254;28;20084;-94
2023/10/02 04:53:09;;;;;;;12.75;8.43;;;16.10;99.90;;;;;;5012892;28;20041;-93
2023/10/02 04:55:44;;;;;;;17.20;10.43;;;16.10;99.90;;;;;;4972005;28;20033;-93
2023/10/02 04:58:18;;;;;;;15.00;8.93;;;16.20;99.90;;;;;;4979516;28;20042;-93
2023/10/02 05:03:37;;;;;;;16.38;10.18;;;16.10;99.90;;;;;;5016309;28;20045;-94
2023/10/02 05:06:04;;;;;;;14.88;9.85;;;16.10;99.90;;;;;;5007976;28;20046;-93
2023/10/02 05:09:19;;;;;;;16.02;9.73;;;16.10;99.90;;;;;;5006538;28;20038;-93
2023/10/02 05:11:50;;;;;;;14.25;10.00;;;16.10;99.90;;;;;;5012897;28;20041;-94
2023/10/02 05:14:51;;;;;;;17.08;10.77;;;15.40;99.90;;;;;;4978265;28;20495;-93
2023/10/02 05:17:17;;;;;;;15.88;9.80;;;16.20;99.90;;;;;;4973251;28;20042;-92
2023/10/02 05:19:57;;;;;;;19.38;10.10;;;16.20;99.90;;;;;;4975182;28;20041;-92
2023/10/02 05:22:27;;;;;;;14.02;10.27;;;16.20;99.90;;;;;;4993483;28;20049;-93
2023/10/02 05:24:58;;;;;;;13.10;8.30;;;16.20;99.90;;;;;;4995336;28;20052;-93
2023/10/02 05:27:32;;;;;;;14.57;9.38;;;16.20;99.90;;;;;;4991558;28;20041;-93
2023/10/02 05:30:12;;;;;;;14.70;9.68;;;16.10;99.90;;;;;;4992041;28;20102;-94
2023/10/02 05:32:47;;;;;;;18.27;10.43;;;16.10;99.90;;;;;;4987480;28;20089;-94
2023/10/02 05:37:42;;;;;;;15.15;9.23;;;16.10;99.90;;;;;;5007812;28;20120;-94
2023/10/02 05:42:46;;;;;;;15.55;9.32;;;16.10;99.90;;;;;;4977105;28;20268;-94
2023/10/02 05:45:17;;;;;;;16.75;8.77;;;16.10;99.90;;;;;;4998407;28;20056;-93
2023/10/02 05:47:48;;;;;;;16.65;9.70;;;16.00;99.90;;;;;;4963223;28;20057;-91
2023/10/02 05:50:17;;;;;;;16.88;9.77;;;16.00;99.90;;;;;;4978991;28;20300;-94
2023/10/02 05:52:48;;;;;;;15.80;9.73;;;16.00;99.90;;;;;;4995015;28;20037;-93
2023/10/02 05:55:17;;;;;;;16.40;9.98;;;16.10;99.90;;;;;;4965483;28;20342;-93
2023/10/02 05:57:45;;;;;;;15.02;9.63;;;16.10;99.90;;;;;;4999261;28;20038;-94
2023/10/02 06:00:16;;;;;;;19.33;10.30;;;16.10;99.90;;;;;;4977460;28;20052;-95
2023/10/02 06:02:57;;;;;;;16.08;9.55;;;16.10;99.90;;;;;;4997551;28;20516;-94
2023/10/02 06:05:24;;;;;;;17.77;9.43;;;16.10;99.90;;;;;;5002278;28;20101;-94
2023/10/02 06:07:51;;;;;;;14.25;9.52;;;16.10;99.90;;;;;;4999087;28;20214;-94
2023/10/02 06:10:26;;;;;;;;;;;16.20;99.90;;;;;;4997280;28;20037;-95
2023/10/02 06:13:02;;;;;;;15.80;8.90;;;16.30;99.90;;;;;;4988706;28;19922;-96
2023/10/02 06:15:48;;;;;;;17.33;9.75;;;16.30;99.90;;;;;;4988893;28;20033;-94
2023/10/02 06:18:27;;;;;;;15.18;9.40;;;16.30;99.90;;;;;;4995567;28;20340;-94
2023/10/02 06:21:03;;;;;;;18.52;9.82;;;16.40;99.90;;;;;;4996810;28;20523;-95
2023/10/02 06:23:44;;;;;;;12.65;9.35;;;16.40;99.90;;;;;;4975149;28;20033;-94
2023/10/02 06:26:11;;;;;;;18.05;9.90;;;16.40;99.90;;;;;;4993682;28;20121;-93
2023/10/02 06:28:44;;;;;;;18.50;9.75;;;16.50;99.90;;;;;;5013998;28;20469;-94
2023/10/02 06:31:42;;;;;;;16.65;9.93;;;16.50;99.90;;;;;;5013589;28;20033;-96
2023/10/02 06:34:11;;;;;;;17.45;9.80;;;16.50;99.90;;;;;;4979751;28;20082;-95
2023/10/02 06:36:48;;;;;;;14.40;8.85;;;16.60;99.90;;;;;;4991797;28;20037;-95
2023/10/02 06:39:17;;;;;;;15.27;9.35;;;16.60;99.90;;;;;;4980358;28;20037;-95
2023/10/02 06:41:45;;;;;;;14.32;9.55;;;16.60;99.90;;;;;;4992787;28;20115;-94
2023/10/02 06:44:18;;;;;;;17.17;9.63;;;16.70;99.90;;;;;;4996945;28;20112;-95
2023/10/02 06:46:55;;;;;;;15.95;9.95;;;16.70;99.90;;;;;;4994025;28;20041;-94
2023/10/02 06:49:21;;;;;;;17.95;9.60;;;16.80;99.90;;;;;;4980383;28;20037;-95
2023/10/02 06:51:50;;;;;;;15.95;9.57;;;;;;;;;;5014708;28;20431;-95
2023/10/02 06:54:18;;;;;;;15.27;9.30;;;16.80;99.90;;;;;;5005928;28;20099;-95
2023/10/02 06:56:48;;;;;;;15.25;9.55;;;16.90;99.90;;;;;;4979984;28;20069;-95
2023/10/02 06:59:14;;;;;;;16.63;9.70;;;16.90;99.90;;;;;;4991502;28;20401;-94
2023/10/02 07:02:04;;;;;;;14.82;10.13;;;16.90;99.90;;;;;;4995863;28;20132;-95
2023/10/02 07:04:33;;;;;;;18.15;10.23;;;17.00;99.90;;;;;;5020939;28;20049;-95
2023/10/02 07:07:07;;;;;;;15.55;9.52;;;17.00;99.90;;;;;;4981704;28;20392;-94
2023/10/02 07:09:37;;;;;;;16.58;10.20;;;17.10;99.90;;;;;;4995333;28;20034;-95
2023/10/02 07:12:13;;;;;;;15.63;9.50;;;17.10;99.90;;;;;;4962021;28;20045;-94
2023/10/02 07:14:41;;;;;;;15.75;10.00;;;17.20;99.90;;;;;;4998239;28;20505;-95
2023/10/02 07:17:12;;;;;;;16.23;10.50;;;17.30;99.90;;;;;;4998294;28;20044;-95
2023/10/02 07:19:48;;;;;;;16.45;9.88;;;17.60;99.90;;;;;;4979201;28;20049;-94
2023/10/02 07:22:18;;;;;;;15.23;10.13;;;17.50;99.90;;;;;;4966467;28;20152;-94
2023/10/02 07:24:46;;;;;;;14.98;9.30;;;17.70;99.90;;;;;;4995192;28;20087;-95
2023/10/02 07:27:26;;;;;;;17.30;9.73;;;17.80;99.90;;;;;;4996388;28;20041;-95
2023/10/02 07:29:57;;;;;;;15.43;10.00;;;17.90;99.90;;;;;;4996633;28;20449;-95
2023/10/02 07:32:29;;;;;;;17.90;10.35;;;18.00;99.90;;;;;;4996050;28;20079;-95
2023/10/02 07:34:55;;;;;;;15.63;9.43;;;18.10;99.90;;;;;;4987260;28;20038;-94
2023/10/02 07:37:24;;;;;;;14.93;9.10;;;18.20;99.90;;;;;;4995168;28;20042;-94
2023/10/02 07:39:58;;;;;;;15.07;9.15;;;18.30;99.90;;;;;;4987623;28;20427;-95
2023/10/02 07:42:31;;;;;;;15.98;9.70;;;18.50;99.90;;;;;;4980838;28;20144;-95
2023/10/02 07:45:24;;;;;;;16.73;9.70;;;18.60;99.90;;;;;;4985448;28;20517;-94
2023/10/02 07:48:25;;;;;;;17.27;9.45;;;18.80;99.90;;;;;;4992718;28;20103;-95
2023/10/02 07:50:44;;;;;;;14.70;9.00;;;18.70;99.90;;;;;;5008309;28;20049;-95
2023/10/02 07:53:10;;;;;;;;;;;19.30;99.90;;;;;;4992463;28;20235;-95
2023/10/02 07:55:39;;;;;;;14.68;9.43;;;19.50;99.90;;;;;;4976947;28;20000;-96
2023/10/02 07:58:08;;;;;;;14.48;9.60;;;19.80;99.90;;;;;;4993230;28;20527;-95
2023/10/02 08:00:43;;;;;;;17.00;9.77;;;19.90;99.90;;;;;;4996111;28;20187;-95
2023/10/02 08:05:56;;;;;;;16.85;9.15;;;20.20;99.90;;;;;;4997562;28;20050;-95
2023/10/02 08:08:33;;;;;;;14.45;9.70;;;20.30;99.90;;;;;;4995370;28;20124;-95
2023/10/02 08:11:02;;;;;;;14.55;9.35;;;20.50;99.90;;;;;;4995744;28;20041;-95
2023/10/02 08:13:48;;;;;;;14.55;9.18;;;20.50;99.90;;;;;;4975995;28;20041;-94
2023/10/02 08:16:17;;;;;;;16.92;9.35;;;20.60;99.90;;;;;;4997866;28;20048;-95
2023/10/02 08:18:58;;;;;;;13.02;8.88;;;20.70;99.90;;;;;;4995748;28;20041;-95
2023/10/02 08:21:35;;;;;;;15.32;9.55;;;20.80;99.90;;;;;;4989621;28;20037;-95
2023/10/02 08:24:11;;;;;;;;;;;20.80;99.90;;;;;;4997514;28;20055;-96
2023/10/02 08:26:43;;;;;;;15.73;9.82;;;20.70;99.90;;;;;;4978895;28;19928;-95
2023/10/02 08:29:18;;;;;;;13.32;9.68;;;20.70;99.90;;;;;;4996434;28;20478;-95
2023/10/02 08:31:49;;;;;;;14.63;9.77;;;20.70;99.90;;;;;;4998384;28;20037;-95
2023/10/02 08:34:19;;;;;;;15.10;10.00;;;20.70;99.90;;;;;;4981140;28;20040;-95
2023/10/02 08:36:47;;;;;;;14.98;9.52;;;20.70;99.90;;;;;;5003376;28;20262;-95
2023/10/02 08:39:13;;;;;;;14.27;9.75;;;20.80;99.90;;;;;;4987722;28;20064;-95
2023/10/02 08:41:50;;;;;;;14.13;9.05;;;20.90;99.90;;;;;;4991848;28;20058;-96
2023/10/02 08:44:17;;;;;;;15.00;9.52;;;20.90;99.90;;;;;;4977580;28;20567;-95
2023/10/02 08:46:43;;;;;;;13.97;9.47;;;21.00;99.90;;;;;;4991460;28;20049;-95
2023/10/02 08:49:10;;;;;;;16.13;9.63;;;21.10;99.90;;;;;;4989587;28;20045;-95
2023/10/02 08:51:38;;;;;;;15.63;9.48;;;21.10;99.90;;;;;;4991542;28;20038;-95
2023/10/02 08:54:05;;;;;;;16.55;9.90;;;21.20;99.90;;;;;;4960682;28;20513;-95
2023/10/02 08:56:44;;;;;;;16.55;9.25;;;21.30;99.90;;;;;;4963752;28;20133;-95
2023/10/02 08:59:16;;;;;;;17.25;10.20;;;21.20;99.90;;;;;;4993398;28;20048;-95
2023/10/02 09:01:47;;;;;;;16.50;9.75;;;20.90;99.90;;;;;;4991905;28;20313;-96
2023/10/02 09:04:22;;;;;;;16.23;9.65;;;20.90;99.90;;;;;;5000510;28;20056;-96
2023/10/02 09:06:49;;;;;;;17.83;10.07;;;20.80;99.90;;;;;;4982541;28;20046;-95
2023/10/02 09:11:53;;;;;;;15.13;9.63;;;20.60;99.90;;;;;;5014069;28;20052;-95
2023/10/02 09:17:17;;;;;;;18.30;11.02;;;20.50;99.90;;;;;;5008852;28;20227;-95
2023/10/02 09:19:53;;;;;;;17.20;9.70;;;20.60;99.90;;;;;;4995387;28;20071;-96
2023/10/02 09:22:21;;;;;;;15.27;10.70;;;20.70;99.90;;;;;;4996525;28;20041;-96
2023/10/02 09:27:54;;;;;;;17.05;10.40;;;20.90;99.90;;;;;;5011304;28;20046;-96
2023/10/02 09:33:05;;;;;;;17.50;10.77;;;21.10;99.90;;;;;;5010510;28;20046;-96
2023/10/02 09:35:39;;;;;;;18.15;10.65;;;21.10;99.90;;;;;;4984291;28;20046;-95
2023/10/02 09:38:15;;;;;;;18.40;10.20;;;21.10;99.90;;;;;;4969126;28;20250;-96
2023/10/02 09:40:56;;;;;;;14.88;9.82;;;21.10;99.90;;;;;;4996034;28;20129;-96
2023/10/02 09:43:25;;;;;;;16.98;9.98;;;21.10;99.90;;;;;;4998192;28;20114;-95
2023/10/02 09:45:55;;;;;;;17.35;10.30;;;21.10;99.90;;;;;;4999269;28;20512;-95
2023/10/02 09:54:17;;;;;;;17.58;10.25;;;21.00;99.90;;;;;;5011435;28;20048;-96
2023/10/02 09:57:11;;;;;;;18.73;10.50;;;20.80;99.90;;;;;;4997630;28;20082;-95
2023/10/02 09:59:57;;;;;;;16.20;10.43;;;20.80;99.90;;;;;;4996790;28;20064;-95
2023/10/02 10:13:36;;;;;;;17.08;10.73;;;21.00;99.90;;;;;;5001614;28;20116;-95
2023/10/02 10:16:20;;;;;;;17.55;10.13;;;21.00;99.90;;;;;;4999566;28;20137;-95
2023/10/02 10:24:56;;;;;;;17.13;9.68;;;21.20;99.90;;;;;;5013505;28;20041;-94
2023/10/02 10:27:40;;;;;;;15.68;9.27;;;21.30;99.90;;;;;;5007917;28;20045;-95
2023/10/02 10:30:24;;;;;;;17.02;9.63;;;21.50;99.90;;;;;;4997098;28;20370;-95
2023/10/02 10:36:05;;;;;;;14.75;9.50;;;21.60;99.90;;;;;;5013694;28;20041;-96
2023/10/02 10:38:36;;;;;;;14.40;8.88;;;21.70;99.90;;;;;;4977910;28;20523;-95
2023/10/02 10:41:06;;;;;;;16.05;9.30;;;21.90;99.90;;;;;;4966354;28;20084;-94
2023/10/02 10:46:24;;;;;;;14.38;9.20;;;22.10;99.90;;;;;;5012568;28;20041;-95
2023/10/02 10:49:07;;;;;;;13.48;8.18;;;22.10;99.90;;;;;;4998526;28;20489;-95
2023/10/02 10:51:35;;;;;;;14.88;8.55;;;22.20;99.90;;;;;;4983291;28;20025;-96
2023/10/02 10:54:14;;;;;;;14.93;8.55;;;22.40;99.90;;;;;;4991261;28;20038;-96
2023/10/02 10:56:44;;;;;;;15.20;8.80;;;22.40;99.90;;;;;;4996903;28;20501;-96
2023/10/02 10:59:11;;;;;;;15.63;8.70;;;22.40;99.90;;;;;;4981265;28;20041;-96
2023/10/02 11:01:38;;;;;;;16.60;10.05;;;22.30;99.90;;;;;;4998454;28;20069;-95
2023/10/02 11:04:04;;;;;;;16.77;10.15;;;22.20;99.90;;;;;;4996791;28;20123;-95
2023/10/02 11:06:30;;;;;;;18.80;10.80;;;22.10;99.90;;;;;;4964114;28;20133;-95
2023/10/02 11:09:11;;;;;;;15.60;10.57;;;22.10;99.90;;;;;;4981175;28;20552;-95
2023/10/02 11:11:50;;;;;;;21.52;11.23;;;21.90;99.90;;;;;;5002071;28;20091;-96
2023/10/02 11:14:22;;;;;;;16.00;10.15;;;21.90;99.90;;;;;;4992153;28;20038;-93
2023/10/02 11:16:56;;;;;;;18.50;11.05;;;21.90;99.90;;;;;;4995987;28;20140;-94
2023/10/02 11:19:26;;;;;;;14.52;10.90;;;21.80;99.90;;;;;;4981020;28;20606;-95
2023/10/02 11:22:22;;;;;;;18.48;11.07;;;21.90;99.90;;;;;;4987967;28;20045;-96
2023/10/02 11:24:54;;;;;;;17.83;11.55;;;21.80;99.90;;;;;;4990336;28;20041;-95
2023/10/02 11:27:24;;;;;;;17.73;11.38;;;21.80;99.90;;;;;;4991507;28;20038;-95
2023/10/02 11:30:03;;;;;;;18.05;11.75;;;21.80;99.90;;;;;;5002326;28;20069;-95
2023/10/02 11:32:53;;;;;;;16.08;10.20;;;21.80;99.90;;;;;;4983748;28;20045;-95
2023/10/02 11:35:28;;;;;;;21.75;11.90;;;21.80;99.90;;;;;;4982442;28;20034;-95
2023/10/02 11:37:54;;;;;;;17.20;10.65;;;21.80;99.90;;;;;;4982796;28;20048;-95
2023/10/02 11:40:25;;;;;;;16.48;10.23;;;21.90;99.90;;;;;;4980031;28;20087;-96
2023/10/02 11:42:59;;;;;;;17.42;10.73;;;22.10;99.90;;;;;;4962773;28;20500;-95
2023/10/02 11:45:26;;;;;;;17.25;10.27;;;22.10;99.90;;;;;;4963471;28;20030;-95
2023/10/02 11:47:52;;;;;;;;;;;22.30;99.90;;;;;;4963475;28;20481;-95
2023/10/02 11:50:18;;;;;;;14.75;10.38;;;22.30;99.90;;;;;;4959037;28;19925;-95
2023/10/02 11:52:44;;;;;;;14.27;9.18;;;22.30;99.90;;;;;;4960846;28;20038;-95
2023/10/02 11:55:10;;;;;;;16.63;9.87;;;22.30;99.90;;;;;;4959308;28;20045;-95
2023/10/02 11:57:37;;;;;;;15.80;9.65;;;22.50;99.90;;;;;;4976623;28;20085;-96
2023/10/02 12:00:09;;;;;;;;;;;22.40;99.90;;;;;;4958441;28;20042;-95
2023/10/02 12:02:35;;;;;;;15.05;9.40;;;22.30;99.90;;;;;;4976576;28;19917;-96
2023/10/02 12:05:01;;;;;;;15.13;9.27;;;22.30;99.90;;;;;;4974681;28;20064;-96
2023/10/02 12:07:26;;;;;;;16.87;9.67;;;22.30;99.90;;;;;;4961989;28;20493;-94
2023/10/02 12:09:53;;;;;;;13.88;9.98;;;22.30;99.90;;;;;;4941220;28;20042;-96
2023/10/02 12:12:19;;;;;;;15.18;9.55;;;22.20;99.90;;;;;;4935511;28;20038;-95
2023/10/02 12:14:45;;;;;;;14.97;9.00;;;22.20;99.90;;;;;;4942634;28;20398;-95
2023/10/02 12:17:14;;;;;;;11.80;7.90;;;22.20;99.90;;;;;;4943516;28;20045;-95
2023/10/02 12:19:41;;;;;;;13.90;9.40;;;22.20;99.90;;;;;;4973446;28;20042;-95
2023/10/02 12:22:07;;;;;;;15.10;9.80;;;22.30;99.90;;;;;;4975072;28;20654;-96
2023/10/02 12:24:37;;;;;;;16.48;10.02;;;22.30;99.90;;;;;;4974204;28;20038;-95
2023/10/02 12:27:10;;;;;;;15.88;10.55;;;22.30;99.90;;;;;;4960120;28;20104;-95
2023/10/02 12:29:39;;;;;;;17.95;10.57;;;22.30;99.90;;;;;;4976864;28;20045;-96
2023/10/02 12:32:05;;;;;;;14.65;9.70;;;22.20;99.90;;;;;;4976611;28;20116;-95
2023/10/02 12:34:31;;;;;;;14.07;10.25;;;22.20;99.90;;;;;;4959923;28;20513;-96
2023/10/02 12:36:57;;;;;;;15.90;9.87;;;22.20;99.90;;;;;;4975997;28;20093;-96
2023/10/02 12:39:26;;;;;;;15.43;11.37;;;22.10;99.90;;;;;;4977274;28;20481;-96
2023/10/02 12:41:54;;;;;;;16.35;11.45;;;22.10;99.90;;;;;;4934776;28;1230427;-96
2023/10/02 12:44:21;;;;;;;13.57;10.43;;;22.10;99.90;;;;;;4961379;28;20075;-95
2023/10/02 12:46:50;;;;;;;15.38;11.32;;;22.20;99.90;;;;;;4964844;28;20448;-96
2023/10/02 12:49:25;;;;;;;16.85;11.18;;;22.20;99.90;;;;;;4979224;28;20080;-96
2023/10/02 12:51:52;;;;;;;18.63;11.63;;;22.20;99.90;;;;;;4949072;28;20077;-96
2023/10/02 12:54:19;;;;;;;;;;;22.20;99.90;;;;;;4968602;28;20042;-96
2023/10/02 12:56:46;;;;;;;15.13;10.88;;;22.10;99.90;;;;;;4963111;28;19926;-96
2023/10/02 12:59:12;;;;;;;15.80;9.93;;;22.10;99.90;;;;;;4979959;28;20053;-95
2023/10/02 13:01:40;;;;;;;15.60;10.40;;;22.20;99.90;;;;;;4962811;28;20414;-96
2023/10/02 13:04:14;;;;;;;14.38;9.75;;;22.20;99.90;;;;;;4979620;28;20041;-95
2023/10/02 13:06:41;;;;;;;15.18;9.80;;;22.20;99.90;;;;;;4965919;28;20092;-96
2023/10/02 13:09:14;;;;;;;;;;;22.10;99.90;;;;;;4940305;28;20077;-95
2023/10/02 13:11:47;;;;;;;13.20;9.98;;;22.10;99.90;;;;;;4965648;28;19917;-96
2023/10/02 13:14:13;;;;;;;14.27;9.55;;;22.10;99.90;;;;;;4975383;28;20125;-96
2023/10/02 13:16:42;;;;;;;14.13;10.10;;;22.20;99.90;;;;;;4974351;28;20125;-96
2023/10/02 13:19:12;;;;;;;15.68;9.55;;;22.10;99.90;;;;;;4978417;28;20038;-96
2023/10/02 13:21:40;;;;;;;13.57;9.77;;;22.20;99.90;;;;;;4980747;28;20049;-95
2023/10/02 13:24:10;;;;;;;13.45;9.43;;;22.20;99.90;;;;;;4988784;28;20053;-96
2023/10/02 13:26:38;;;;;;;13.07;9.07;;;22.20;99.90;;;;;;4980969;28;20038;-95
2023/10/02 13:29:05;;;;;;;14.38;9.57;;;22.20;99.90;;;;;;4979478;28;20037;-96
2023/10/02 13:31:31;;;;;;;15.18;10.38;;;22.20;99.90;;;;;;4948799;28;20109;-94
2023/10/02 13:33:57;;;;;;;14.32;9.43;;;22.20;99.90;;;;;;4967169;28;20135;-96
2023/10/02 13:36:25;;;;;;;14.73;9.80;;;22.20;99.90;;;;;;4963111;28;20046;-96
2023/10/02 13:38:58;;;;;;;15.70;10.45;;;22.20;99.90;;;;;;4978212;28;20132;-96
2023/10/02 13:41:25;;;;;;;17.05;9.80;;;22.20;99.90;;;;;;4982617;28;20058;-95
2023/10/02 13:43:59;;;;;;;;;;;22.10;99.90;;;;;;4974155;28;20101;-95
2023/10/02 13:46:25;;;;;;;14.05;9.27;;;22.10;99.90;;;;;;4978882;28;19922;-96
2023/10/02 13:48:52;;;;;;;13.70;9.15;;;22.10;99.90;;;;;;4976842;28;20057;-95
2023/10/02 13:51:22;;;;;;;16.00;10.38;;;22.10;99.90;;;;;;4969951;28;20038;-96
2023/10/02 13:53:53;;;;;;;13.32;8.77;;;22.10;99.90;;;;;;4977330;28;20042;-95
2023/10/02 13:56:25;;;;;;;15.48;10.00;;;22.10;99.90;;;;;;4978270;28;20508;-95
2023/10/02 13:58:52;;;;;;;16.02;9.48;;;22.00;99.90;;;;;;4963898;28;20516;-96
2023/10/02 14:01:24;;;;;;;13.93;9.13;;;22.10;99.90;;;;;;4980675;28;20493;-96
2023/10/02 14:03:51;;;;;;;15.52;9.50;;;22.00;99.90;;;;;;4968580;28;20172;-96
2023/10/02 14:06:19;;;;;;;12.75;10.07;;;22.10;99.90;;;;;;4976155;28;20489;-96
2023/10/02 14:08:46;;;;;;;15.50;9.88;;;22.10;99.90;;;;;;4970057;28;20038;-96
2023/10/02 14:11:30;;;;;;;12.90;9.10;;;22.00;99.90;;;;;;4968861;28;20038;-96
2023/10/02 14:13:56;;;;;;;16.20;10.05;;;22.00;99.90;;;;;;4963808;28;20041;-96
2023/10/02 14:16:24;;;;;;;13.32;9.45;;;22.00;99.90;;;;;;4974942;28;20046;-96